createdAt,value
2017-11-13T00:01:14.333Z,94574.31
2017-11-13T00:03:41.917Z,94558.45
2017-11-13T00:06:09.520Z,94581.54
2017-11-13T00:08:37.128Z,94600.30
2017-11-13T00:11:05.574Z,94602.18
2017-11-13T00:13:33.270Z,94630.45
2017-11-13T00:16:00.900Z,94664.84
2017-11-13T00:18:28.464Z,94694.71
2017-11-13T00:20:56.024Z,94698.10
2017-11-13T00:23:23.744Z,94712.05
2017-11-13T00:25:51.306Z,94706.44
2017-11-13T00:28:18.856Z,94690.63
2017-11-13T00:30:46.547Z,94672.13
2017-11-13T00:33:14.535Z,94664.08
2017-11-13T00:35:42.118Z,94681.23
2017-11-13T00:38:09.757Z,94666.73
2017-11-13T00:40:37.338Z,94671.66
2017-11-13T00:43:05.104Z,94672.59
2017-11-13T00:45:32.702Z,94684.52
2017-11-13T00:48:00.249Z,94684.34
2017-11-13T00:50:27.824Z,94686.06
2017-11-13T00:52:55.387Z,94705.09
2017-11-13T00:55:23.272Z,94718.72
2017-11-13T00:57:50.876Z,94728.36
2017-11-13T01:00:18.443Z,94739.59
2017-11-13T01:02:46.041Z,94738.98
2017-11-13T01:05:14.112Z,94741.96
2017-11-13T01:07:41.770Z,94748.17
2017-11-13T01:10:09.457Z,94760.95
2017-11-13T01:12:37.012Z,94774.36
2017-11-13T01:15:04.719Z,94771.23
2017-11-13T01:17:32.280Z,94782.82
2017-11-13T01:19:59.863Z,94792.84
2017-11-13T01:22:27.518Z,94799.83
2017-11-13T01:24:55.118Z,94811.34
2017-11-13T01:27:22.672Z,94805.23
2017-11-13T01:29:50.253Z,94811.08
2017-11-13T01:32:17.831Z,94817.11
2017-11-13T01:34:45.419Z,94819.02
2017-11-13T01:37:13.461Z,94825.98
2017-11-13T01:39:41.043Z,94831.61
2017-11-13T01:42:08.684Z,94821.88
2017-11-13T01:44:36.298Z,94815.08
2017-11-13T01:47:03.921Z,94814.10
2017-11-13T01:49:31.647Z,94805.62
2017-11-13T01:51:59.260Z,94804.80
2017-11-13T01:54:26.895Z,94802.16
2017-11-13T01:56:54.493Z,94796.01
2017-11-13T01:59:22.148Z,94796.30
2017-11-13T02:01:49.752Z,94801.87
2017-11-13T02:04:17.376Z,94801.23
2017-11-13T02:06:44.979Z,94799.33
2017-11-13T02:09:12.554Z,94808.56
2017-11-13T02:11:40.141Z,94804.98
2017-11-13T02:14:07.883Z,94813.30
2017-11-13T02:16:36.287Z,94813.49
2017-11-13T02:19:04.831Z,94812.92
2017-11-13T02:21:32.568Z,94819.48
2017-11-13T02:24:00.221Z,94820.14
2017-11-13T02:26:27.771Z,94817.66
2017-11-13T02:28:55.386Z,94819.17
2017-11-13T02:31:23.522Z,94824.44
2017-11-13T02:33:51.925Z,94811.50
2017-11-13T02:36:20.356Z,94807.95
2017-11-13T02:38:48.225Z,94805.69
2017-11-13T02:41:16.361Z,94799.89
2017-11-13T02:43:43.941Z,94798.41
2017-11-13T02:46:11.545Z,94801.27
2017-11-13T02:48:39.185Z,94799.38
2017-11-13T02:51:06.923Z,94805.52
2017-11-13T02:53:35.326Z,94794.52
2017-11-13T02:56:03.523Z,94806.07
2017-11-13T02:58:31.158Z,94801.87
2017-11-13T03:00:58.803Z,94813.49
2017-11-13T03:03:26.420Z,94818.89
2017-11-13T03:05:57.417Z,94825.00
2017-11-13T03:08:25.102Z,94815.57
2017-11-13T03:10:52.696Z,94814.64
2017-11-13T03:16:10.423Z,94829.77
2017-11-13T03:18:40.989Z,94842.25
2017-11-13T03:21:08.893Z,94851.97
2017-11-13T03:23:36.523Z,94860.84
2017-11-13T03:26:04.818Z,94862.28
2017-11-13T03:28:32.424Z,94870.84
2017-11-13T03:31:00.051Z,94879.22
2017-11-13T03:33:27.608Z,94896.34
2017-11-13T03:35:56.240Z,94885.55
2017-11-13T03:38:23.834Z,94884.47
2017-11-13T03:40:51.480Z,94892.95
2017-11-13T03:43:19.086Z,94890.56
2017-11-13T03:45:46.723Z,94899.23
2017-11-13T03:48:14.342Z,94905.84
2017-11-13T03:50:43.925Z,94907.38
2017-11-13T03:53:11.673Z,94915.09
2017-11-13T03:58:12.345Z,94935.59
2017-11-13T04:00:41.733Z,94948.82
2017-11-13T04:03:10.031Z,94948.77
2017-11-13T04:05:37.647Z,94943.03
2017-11-13T04:08:05.222Z,94933.73
2017-11-13T04:10:32.777Z,94930.70
2017-11-13T04:13:00.336Z,94928.17
2017-11-13T04:15:27.930Z,94941.67
2017-11-13T04:17:55.482Z,94948.61
2017-11-13T04:20:23.078Z,94945.28
2017-11-13T04:22:50.652Z,94955.94
2017-11-13T04:25:18.224Z,94948.30
2017-11-13T04:27:45.799Z,94973.89
2017-11-13T04:30:13.426Z,94984.52
2017-11-13T04:32:40.987Z,94993.41
2017-11-13T04:35:08.727Z,94997.58
2017-11-13T04:37:36.346Z,94997.95
2017-11-13T04:40:03.944Z,94995.08
2017-11-13T04:42:31.574Z,94999.08
2017-11-13T04:44:59.156Z,94998.59
2017-11-13T04:47:26.887Z,94999.31
2017-11-13T04:49:54.474Z,94995.88
2017-11-13T04:52:22.360Z,94998.36
2017-11-13T04:54:49.930Z,95000.17
2017-11-13T04:57:17.507Z,94996.20
2017-11-13T04:59:45.144Z,94990.53
2017-11-13T05:02:12.733Z,94989.78
2017-11-13T05:04:40.377Z,94989.61
2017-11-13T05:07:08.049Z,95005.60
2017-11-13T05:09:35.599Z,95012.64
2017-11-13T05:12:03.153Z,95007.07
2017-11-13T05:14:30.722Z,95005.91
2017-11-13T05:16:58.332Z,95008.13
2017-11-13T05:19:26.063Z,95010.49
2017-11-13T05:21:53.644Z,95000.37
2017-11-13T05:24:21.839Z,95005.88
2017-11-13T05:26:49.495Z,95009.73
2017-11-13T05:29:17.069Z,95002.77
2017-11-13T05:31:44.642Z,95004.44
2017-11-13T05:34:12.222Z,95014.86
2017-11-13T05:36:39.772Z,95012.91
2017-11-13T05:39:07.411Z,95007.66
2017-11-13T05:41:35.009Z,95008.37
2017-11-13T05:44:02.674Z,95010.86
2017-11-13T05:46:30.226Z,95009.30
2017-11-13T05:48:57.799Z,95013.47
2017-11-13T05:51:26.589Z,95021.70
2017-11-13T05:53:54.155Z,95033.45
2017-11-13T05:56:21.753Z,95034.81
2017-11-13T05:58:49.466Z,95037.34
2017-11-13T06:01:17.042Z,95042.50
2017-11-13T06:03:45.981Z,95046.09
2017-11-13T06:06:13.573Z,95055.63
2017-11-13T06:08:41.126Z,95062.80
2017-11-13T06:11:09.049Z,95069.48
2017-11-13T06:13:36.645Z,95078.60
2017-11-13T06:16:04.218Z,95078.88
2017-11-13T06:18:31.767Z,95091.66
2017-11-13T06:20:59.371Z,95102.36
2017-11-13T06:23:26.945Z,95116.92
2017-11-13T06:25:54.533Z,95127.90
2017-11-13T06:28:22.092Z,95140.52
2017-11-13T06:30:49.647Z,95148.03
2017-11-13T06:33:17.330Z,95148.88
2017-11-13T06:35:44.881Z,95156.27
2017-11-13T06:38:12.525Z,95153.48
2017-11-13T06:40:40.134Z,95165.02
2017-11-13T06:43:07.802Z,95157.97
2017-11-13T06:45:35.373Z,95151.41
2017-11-13T06:48:02.960Z,95159.30
2017-11-13T06:50:30.536Z,95175.51
2017-11-13T06:52:58.080Z,95171.55
2017-11-13T06:55:25.843Z,95166.12
2017-11-13T06:57:53.410Z,95159.83
2017-11-13T07:00:20.959Z,95164.38
2017-11-13T07:02:48.517Z,95169.68
2017-11-13T07:05:16.084Z,95181.06
2017-11-13T07:07:43.681Z,95187.67
2017-11-13T07:10:11.265Z,95184.49
2017-11-13T07:12:38.837Z,95185.63
2017-11-13T07:15:06.496Z,95196.33
2017-11-13T07:17:34.156Z,95199.96
2017-11-13T07:20:01.750Z,95203.66
2017-11-13T07:22:29.336Z,95205.88
2017-11-13T07:24:58.151Z,95217.64
2017-11-13T07:27:25.708Z,95221.14
2017-11-13T07:29:53.348Z,95231.67
2017-11-13T07:32:20.961Z,95230.72
2017-11-13T07:34:48.537Z,95235.64
2017-11-13T07:37:18.142Z,95236.09
2017-11-13T07:39:45.852Z,95234.28
2017-11-13T07:42:13.477Z,95240.50
2017-11-13T07:44:44.152Z,95240.50
2017-11-13T07:47:12.115Z,95232.72
2017-11-13T07:49:40.236Z,95226.84
2017-11-13T07:52:09.214Z,95221.61
2017-11-13T07:54:39.887Z,95217.06
2017-11-13T07:57:08.620Z,95220.20
2017-11-13T07:59:36.279Z,95221.23
2017-11-13T08:02:04.067Z,95225.48
2017-11-13T08:04:31.663Z,95229.27
2017-11-13T08:06:59.214Z,95231.98
2017-11-13T08:09:27.078Z,95234.17
2017-11-13T08:11:54.639Z,95234.68
2017-11-13T08:14:22.315Z,95240.91
2017-11-13T08:16:49.969Z,95246.66
2017-11-13T08:19:17.967Z,95246.97
2017-11-13T08:21:45.622Z,95247.27
2017-11-13T08:24:13.197Z,95249.94
2017-11-13T08:26:40.796Z,95258.67
2017-11-13T08:29:08.645Z,95263.60
2017-11-13T08:31:36.209Z,95269.48
2017-11-13T08:34:03.811Z,95274.45
2017-11-13T08:36:31.379Z,95279.42
2017-11-13T08:38:58.927Z,95279.59
2017-11-13T08:41:27.554Z,95284.11
2017-11-13T08:43:55.112Z,95280.24
2017-11-13T08:46:23.228Z,95281.03
2017-11-13T08:48:50.872Z,95285.95
2017-11-13T08:51:19.252Z,95278.91
2017-11-13T08:53:46.915Z,95291.98
2017-11-13T08:56:14.571Z,95290.03
2017-11-13T08:58:42.211Z,95296.84
2017-11-13T09:01:09.936Z,95294.72
2017-11-13T09:03:37.529Z,95295.38
2017-11-13T09:06:05.082Z,95294.14
2017-11-13T09:08:32.649Z,95301.57
2017-11-13T09:11:00.252Z,95290.27
2017-11-13T09:13:27.912Z,95302.73
2017-11-13T09:15:55.487Z,95312.52
2017-11-13T09:18:23.982Z,95312.55
2017-11-13T09:20:51.537Z,95321.02
2017-11-13T09:23:19.081Z,95320.80
2017-11-13T09:25:46.651Z,95330.59
2017-11-13T09:28:14.283Z,95336.78
2017-11-13T09:30:41.830Z,95341.66
2017-11-13T09:33:09.583Z,95356.73
2017-11-13T09:35:37.200Z,95352.35
2017-11-13T09:38:04.763Z,95361.73
2017-11-13T09:40:33.123Z,95368.08
2017-11-13T09:43:00.699Z,95371.09
2017-11-13T09:45:28.308Z,95372.23
2017-11-13T09:47:55.884Z,95376.97
2017-11-13T09:50:23.443Z,95376.22
2017-11-13T09:52:51.001Z,95377.80
2017-11-13T09:55:18.646Z,95375.27
2017-11-13T09:57:46.210Z,95380.38
2017-11-13T10:00:13.784Z,95380.66
2017-11-13T10:02:41.443Z,95376.06
2017-11-13T10:05:09.019Z,95375.89
2017-11-13T10:07:36.652Z,95376.38
2017-11-13T10:10:04.251Z,95371.27
2017-11-13T10:12:31.883Z,95370.14
2017-11-13T10:14:59.434Z,95379.18
2017-11-13T10:17:27.011Z,95378.12
2017-11-13T10:19:54.596Z,95378.17
2017-11-13T10:22:22.921Z,95377.37
2017-11-13T10:24:50.508Z,95376.31
2017-11-13T10:27:18.108Z,95372.67
2017-11-13T10:29:45.727Z,95382.48
2017-11-13T10:32:13.302Z,95381.95
2017-11-13T10:34:40.884Z,95386.28
2017-11-13T10:37:08.613Z,95398.27
2017-11-13T10:39:37.291Z,95397.87
2017-11-13T10:42:04.842Z,95398.65
2017-11-13T10:44:32.410Z,95393.86
2017-11-13T10:47:00.001Z,95402.61
2017-11-13T10:49:27.687Z,95401.38
2017-11-13T10:51:55.272Z,95403.55
2017-11-13T10:54:23.525Z,95412.20
2017-11-13T10:56:51.094Z,95417.36
2017-11-13T10:59:18.708Z,95412.87
2017-11-13T11:01:46.291Z,95419.23
2017-11-13T11:04:14.279Z,95413.70
2017-11-13T11:06:41.923Z,95416.19
2017-11-13T11:09:09.565Z,95419.95
2017-11-13T11:11:37.403Z,95421.56
2017-11-13T11:14:05.555Z,95430.38
2017-11-13T11:16:38.561Z,95426.11
2017-11-13T11:22:12.715Z,95435.43
2017-11-13T11:24:40.365Z,95437.88
2017-11-13T11:27:11.094Z,95445.17
2017-11-13T11:29:41.158Z,95455.48
2017-11-13T11:35:14.078Z,95449.20
2017-11-13T11:37:41.644Z,95450.33
2017-11-13T11:40:09.242Z,95451.25
2017-11-13T11:42:36.889Z,95455.47
2017-11-13T11:45:11.081Z,95424.31
2017-11-13T11:47:39.988Z,95457.08
2017-11-13T11:50:08.720Z,95457.12
2017-11-13T11:52:36.378Z,95466.47
2017-11-13T11:55:07.842Z,95466.34
2017-11-13T11:57:35.471Z,95465.82
2017-11-13T12:00:03.725Z,95468.88
2017-11-13T12:02:31.395Z,95474.56
2017-11-13T12:04:58.988Z,95464.52
2017-11-13T12:07:26.715Z,95467.92
2017-11-13T12:09:54.267Z,95467.06
2017-11-13T12:14:53.597Z,95473.30
2017-11-13T12:17:21.186Z,95472.08
2017-11-13T12:19:48.741Z,95467.03
2017-11-13T12:22:16.406Z,95470.94
2017-11-13T12:24:44.056Z,95471.20
2017-11-13T12:27:11.710Z,95489.52
2017-11-13T12:29:39.578Z,95490.98
2017-11-13T12:32:07.257Z,95501.16
2017-11-13T12:34:34.809Z,95497.48
2017-11-13T12:37:02.382Z,95505.41
2017-11-13T12:39:30.027Z,95503.72
2017-11-13T12:41:57.586Z,95508.81
2017-11-13T12:44:25.461Z,95514.81
2017-11-13T12:46:53.043Z,95519.99
2017-11-13T12:49:20.610Z,95513.13
2017-11-13T12:51:48.200Z,95519.05
2017-11-13T12:54:15.817Z,95520.70
2017-11-13T12:56:43.375Z,95532.31
2017-11-13T12:59:11.000Z,95533.95
2017-11-13T13:01:38.657Z,95533.62
2017-11-13T13:04:06.306Z,95531.32
2017-11-13T13:06:33.879Z,95541.78
2017-11-13T13:09:01.466Z,95541.92
2017-11-13T13:11:29.842Z,95548.33
2017-11-13T13:13:57.408Z,95556.29
2017-11-13T13:16:25.189Z,95574.80
2017-11-13T13:18:52.782Z,95577.07
2017-11-13T13:21:20.355Z,95572.78
2017-11-13T13:23:47.937Z,95579.17
2017-11-13T13:26:15.561Z,95583.08
2017-11-13T13:28:43.146Z,95586.48
2017-11-13T13:31:10.931Z,95585.91
2017-11-13T13:33:38.544Z,95580.06
2017-11-13T13:36:06.301Z,95562.84
2017-11-13T13:38:33.913Z,95565.38
2017-11-13T13:41:01.505Z,95569.81
2017-11-13T13:43:29.119Z,95577.33
2017-11-13T13:45:56.687Z,95563.33
2017-11-13T13:48:24.268Z,95567.23
2017-11-13T13:50:51.824Z,95565.78
2017-11-13T13:53:19.430Z,95561.52
2017-11-13T13:55:47.023Z,95561.97
2017-11-13T13:58:14.618Z,95558.34
2017-11-13T14:00:42.349Z,95568.51
2017-11-13T14:03:10.151Z,95568.06
2017-11-13T14:05:37.836Z,95577.50
2017-11-13T14:08:05.438Z,95582.77
2017-11-13T14:10:33.016Z,95592.52
2017-11-13T14:13:00.589Z,95606.13
2017-11-13T14:15:28.528Z,95618.68
2017-11-13T14:17:56.087Z,95623.64
2017-11-13T14:20:23.664Z,95645.84
2017-11-13T14:22:51.248Z,95647.06
2017-11-13T14:25:18.812Z,95647.73
2017-11-13T14:27:46.367Z,95657.81
2017-11-13T14:30:13.989Z,95674.44
2017-11-13T14:32:41.579Z,95684.41
2017-11-13T14:35:09.431Z,95687.59
2017-11-13T14:37:37.375Z,95702.73
2017-11-13T14:40:04.986Z,95721.95
2017-11-13T14:42:32.624Z,95724.72
2017-11-13T14:45:00.205Z,95737.12
2017-11-13T14:47:28.617Z,95746.80
2017-11-13T14:49:56.180Z,95747.27
2017-11-13T14:52:24.394Z,95739.24
2017-11-13T14:54:52.898Z,95740.77
2017-11-13T14:57:20.466Z,95747.05
2017-11-13T14:59:48.038Z,95747.11
2017-11-13T15:02:15.912Z,95746.27
2017-11-13T15:04:43.456Z,95743.56
2017-11-13T15:07:13.654Z,95747.33
2017-11-13T15:09:41.524Z,95751.66
2017-11-13T15:12:09.084Z,95750.08
2017-11-13T15:14:38.672Z,95754.68
2017-11-13T15:17:08.731Z,95755.84
2017-11-13T15:19:36.419Z,95750.02
2017-11-13T15:22:05.898Z,95747.22
2017-11-13T15:24:36.799Z,95743.34
2017-11-13T15:27:08.209Z,95752.22
2017-11-13T15:29:35.893Z,95759.70
2017-11-13T15:32:03.501Z,95763.02
2017-11-13T15:34:31.286Z,95768.67
2017-11-13T15:36:59.375Z,95778.11
2017-11-13T15:39:27.021Z,95783.73
2017-11-13T15:41:54.597Z,95791.15
2017-11-13T15:44:22.402Z,95802.82
2017-11-13T15:46:49.986Z,95805.19
2017-11-13T15:49:17.536Z,95811.64
2017-11-13T15:51:45.155Z,95815.95
2017-11-13T15:54:13.960Z,95819.38
2017-11-13T15:56:41.659Z,95814.59
2017-11-13T15:59:09.254Z,95828.14
2017-11-13T16:01:36.858Z,95828.62
2017-11-13T16:04:04.449Z,95828.30
2017-11-13T16:06:32.438Z,95830.53
2017-11-13T16:09:00.053Z,95838.42
2017-11-13T16:11:27.663Z,95844.59
2017-11-13T16:13:56.074Z,95850.31
2017-11-13T16:16:24.042Z,95865.76
2017-11-13T16:18:51.584Z,95846.94
2017-11-13T16:21:19.270Z,95854.11
2017-11-13T16:23:46.816Z,95854.13
2017-11-13T16:26:14.441Z,95850.13
2017-11-13T16:28:42.065Z,95838.81
2017-11-13T16:31:09.658Z,95848.05
2017-11-13T16:33:37.194Z,95853.95
2017-11-13T16:36:04.917Z,95851.41
2017-11-13T16:38:32.455Z,95871.22
2017-11-13T16:40:59.991Z,95878.13
2017-11-13T16:43:27.586Z,95873.84
2017-11-13T16:45:55.137Z,95884.84
2017-11-13T16:48:22.760Z,95888.33
2017-11-13T16:50:50.336Z,95894.03
2017-11-13T16:53:17.959Z,95894.78
2017-11-13T16:55:45.534Z,95897.98
2017-11-13T16:58:13.129Z,95889.65
2017-11-13T17:00:40.683Z,95890.15
2017-11-13T17:03:08.251Z,95898.05
2017-11-13T17:05:35.820Z,95887.70
2017-11-13T17:08:03.374Z,95897.92
2017-11-13T17:10:30.917Z,95894.38
2017-11-13T17:12:58.518Z,95903.48
2017-11-13T17:15:26.312Z,95901.70
2017-11-13T17:17:53.867Z,95919.55
2017-11-13T17:20:21.417Z,95917.45
2017-11-13T17:22:48.983Z,95922.61
2017-11-13T17:25:16.534Z,95930.57
2017-11-13T17:27:44.121Z,95941.38
2017-11-13T17:30:11.725Z,95954.97
2017-11-13T17:32:39.276Z,95958.29
2017-11-13T17:35:06.911Z,95966.36
2017-11-13T17:37:34.472Z,95967.09
2017-11-13T17:40:02.027Z,95966.54
2017-11-13T17:42:29.602Z,95972.50
2017-11-13T17:47:47.309Z,95963.17
2017-11-13T17:50:14.846Z,95955.83
2017-11-13T17:52:42.385Z,95953.20
2017-11-13T17:55:10.018Z,95948.31
2017-11-13T17:57:37.607Z,95963.27
2017-11-13T18:00:05.709Z,95966.17
2017-11-13T18:02:33.341Z,95979.32
2017-11-13T18:05:00.881Z,95977.16
2017-11-13T18:07:28.422Z,95965.61
2017-11-13T18:09:56.026Z,95975.09
2017-11-13T18:12:23.629Z,95970.23
2017-11-13T18:14:51.201Z,95976.78
2017-11-13T18:17:18.920Z,95977.48
2017-11-13T18:19:46.534Z,95974.98
2017-11-13T18:22:14.135Z,95988.52
2017-11-13T18:24:41.707Z,95982.04
2017-11-13T18:27:09.350Z,95977.02
2017-11-13T18:29:36.942Z,95984.22
2017-11-13T18:32:04.552Z,95983.89
2017-11-13T18:34:32.114Z,95990.23
2017-11-13T18:36:59.664Z,95985.99
2017-11-13T18:39:27.381Z,95987.50
2017-11-13T18:41:54.940Z,95993.95
2017-11-13T18:44:22.738Z,95988.62
2017-11-13T18:46:50.380Z,96002.56
2017-11-13T18:49:17.945Z,96006.33
2017-11-13T18:51:45.525Z,96008.81
2017-11-13T18:54:13.127Z,96018.34
2017-11-13T18:56:40.712Z,96029.48
2017-11-13T18:59:08.278Z,96028.94
2017-11-13T19:01:36.383Z,96032.01
2017-11-13T19:04:04.018Z,96039.59
2017-11-13T19:06:31.587Z,96045.48
2017-11-13T19:08:59.239Z,96052.83
2017-11-13T19:11:26.903Z,96049.94
2017-11-13T19:13:54.451Z,96054.38
2017-11-13T19:16:22.106Z,96060.06
2017-11-13T19:18:49.660Z,96075.27
2017-11-13T19:21:17.400Z,96073.72
2017-11-13T19:23:44.963Z,96071.45
2017-11-13T19:26:13.257Z,96078.23
2017-11-13T19:28:41.040Z,96082.64
2017-11-13T19:31:08.592Z,96086.77
2017-11-13T19:33:36.234Z,96084.19
2017-11-13T19:36:06.712Z,96081.80
2017-11-13T19:38:34.324Z,96086.80
2017-11-13T19:41:03.335Z,96082.73
2017-11-13T19:43:30.957Z,96088.91
2017-11-13T19:45:58.672Z,96090.11
2017-11-13T19:48:26.317Z,96093.13
2017-11-13T19:50:53.990Z,96097.05
2017-11-13T19:53:21.688Z,96102.94
2017-11-13T19:55:49.298Z,96109.18
2017-11-13T19:58:16.872Z,96110.23
2017-11-13T20:00:44.974Z,96114.58
2017-11-13T20:03:12.557Z,96110.16
2017-11-13T20:05:40.146Z,96110.55
2017-11-13T20:08:07.755Z,96115.42
2017-11-13T20:10:35.388Z,96126.69
2017-11-13T20:13:03.043Z,96129.42
2017-11-13T20:15:30.627Z,96133.30
2017-11-13T20:17:58.405Z,96145.16
2017-11-13T20:20:26.003Z,96142.61
2017-11-13T20:22:53.565Z,96139.20
2017-11-13T20:25:21.370Z,96140.61
2017-11-13T20:27:49.064Z,96146.91
2017-11-13T20:30:16.629Z,96147.91
2017-11-13T20:32:44.195Z,96142.36
2017-11-13T20:35:11.886Z,96143.95
2017-11-13T20:37:39.516Z,96148.59
2017-11-13T20:40:07.093Z,96144.04
2017-11-13T20:42:34.692Z,96149.76
2017-11-13T20:45:02.294Z,96157.92
2017-11-13T20:47:30.766Z,96161.45
2017-11-13T20:49:58.345Z,96158.50
2017-11-13T20:52:25.902Z,96152.33
2017-11-13T20:54:53.482Z,96151.55
2017-11-13T20:57:21.074Z,96161.69
2017-11-13T20:59:48.637Z,96161.03
2017-11-13T21:02:16.280Z,96165.56
2017-11-13T21:04:43.869Z,96175.64
2017-11-13T21:07:11.478Z,96181.05
2017-11-13T21:09:39.018Z,96176.23
2017-11-13T21:12:06.634Z,96182.47
2017-11-13T21:14:34.230Z,96186.03
2017-11-13T21:17:01.835Z,96189.59
2017-11-13T21:19:29.854Z,96191.36
2017-11-13T21:21:57.434Z,96197.57
2017-11-13T21:24:25.022Z,96189.51
2017-11-13T21:26:52.605Z,96193.70
2017-11-13T21:29:20.279Z,96195.94
2017-11-13T21:31:47.984Z,96196.80
2017-11-13T21:34:15.618Z,96192.42
2017-11-13T21:36:43.184Z,96194.05
2017-11-13T21:39:10.871Z,96191.67
2017-11-13T21:41:38.457Z,96190.73
2017-11-13T21:44:06.533Z,96195.06
2017-11-13T21:46:34.110Z,96193.59
2017-11-13T21:49:01.662Z,96190.34
2017-11-13T21:51:29.212Z,96201.52
2017-11-13T21:53:56.765Z,96205.98
2017-11-13T21:56:24.387Z,96212.45
2017-11-13T21:58:51.974Z,96215.53
2017-11-13T22:04:10.444Z,96219.98
2017-11-13T22:06:38.197Z,96224.70
2017-11-13T22:09:06.210Z,96230.56
2017-11-13T22:11:33.815Z,96231.05
2017-11-13T22:14:01.365Z,96236.12
2017-11-13T22:16:28.894Z,96239.86
2017-11-13T22:18:56.515Z,96233.66
2017-11-13T22:21:24.246Z,96238.91
2017-11-13T22:23:51.795Z,96244.34
2017-11-13T22:26:19.397Z,96250.97
2017-11-13T22:28:46.942Z,96254.88
2017-11-13T22:31:14.478Z,96262.68
2017-11-13T22:33:42.058Z,96268.91
2017-11-13T22:36:09.762Z,96262.75
2017-11-13T22:38:37.351Z,96266.08
2017-11-13T22:41:05.005Z,96272.48
2017-11-13T22:43:32.662Z,96270.70
2017-11-13T22:46:00.216Z,96269.70
2017-11-13T22:48:27.816Z,96279.59
2017-11-13T22:50:55.418Z,96276.95
2017-11-13T22:53:23.925Z,96275.77
2017-11-13T22:55:51.517Z,96273.39
2017-11-13T22:58:19.086Z,96272.78
2017-11-13T23:00:46.623Z,96270.58
2017-11-13T23:03:14.185Z,96267.10
2017-11-13T23:05:41.745Z,96273.19
2017-11-13T23:08:09.482Z,96275.96
2017-11-13T23:10:37.045Z,96277.69
2017-11-13T23:13:05.104Z,96282.83
2017-11-13T23:15:32.675Z,96286.39
2017-11-13T23:18:00.239Z,96283.03
2017-11-13T23:20:27.788Z,96285.34
2017-11-13T23:22:55.351Z,96284.96
2017-11-13T23:25:22.895Z,96288.10
2017-11-13T23:27:50.466Z,96288.29
2017-11-13T23:30:18.666Z,96296.28
2017-11-13T23:32:46.228Z,96298.79
2017-11-13T23:35:13.862Z,96294.11
2017-11-13T23:37:41.419Z,96295.41
2017-11-13T23:40:09.592Z,96295.22
2017-11-13T23:42:37.258Z,96294.88
2017-11-13T23:45:05.844Z,96294.99
2017-11-13T23:47:33.436Z,96298.94
2017-11-13T23:50:01.045Z,96303.40
2017-11-13T23:52:30.376Z,96306.44
2017-11-13T23:54:59.337Z,96308.97
2017-11-13T23:57:27.044Z,96310.63
2017-11-13T23:59:54.589Z,96315.41
